createdAt,value
2022-11-29T00:00:28.991Z,101169.49
2022-11-29T00:01:30.258Z,101170.41
2022-11-29T00:02:29.182Z,101171.57
2022-11-29T00:03:29.237Z,101171.45
2022-11-29T00:04:29.053Z,101168.64
2022-11-29T00:05:29.266Z,101173.39
2022-11-29T00:06:30.433Z,101172.28
2022-11-29T00:07:29.138Z,101172.83
2022-11-29T00:08:29.274Z,101173.87
2022-11-29T00:09:29.107Z,101175.45
2022-11-29T00:10:29.089Z,101168.5
2022-11-29T00:11:30.517Z,101178.37
2022-11-29T00:12:29.519Z,101169.94
2022-11-29T00:13:29.344Z,101171.42
2022-11-29T00:14:29.421Z,101171.53
2022-11-29T00:15:29.194Z,101177.02
2022-11-29T00:16:29.277Z,101175.56
2022-11-29T00:17:29.261Z,101172.86
2022-11-29T00:18:29.237Z,101174.52
2022-11-29T00:19:29.652Z,101173.3
2022-11-29T00:20:29.258Z,101175.17
2022-11-29T00:21:29.454Z,101171.14
2022-11-29T00:22:29.296Z,101171.48
2022-11-29T00:23:29.306Z,101173.72
2022-11-29T00:24:29.333Z,101174.9
2022-11-29T00:25:29.333Z,101173.19
2022-11-29T00:26:29.359Z,101177.27
2022-11-29T00:27:29.384Z,101173.71
2022-11-29T00:28:29.365Z,101176.28
2022-11-29T00:29:30.022Z,101177.28
2022-11-29T00:30:29.438Z,101177.12
2022-11-29T00:31:30.966Z,101175.53
2022-11-29T00:32:29.433Z,101176.52
2022-11-29T00:33:29.910Z,101175.06
2022-11-29T00:34:29.470Z,101173.8
2022-11-29T00:35:29.438Z,101176.55
2022-11-29T00:36:29.682Z,101176.41
2022-11-29T00:37:29.506Z,101180.72
2022-11-29T00:38:29.555Z,101179.03
2022-11-29T00:39:29.510Z,101179.38
2022-11-29T00:40:29.527Z,101179.17
2022-11-29T00:41:29.589Z,101183.42
2022-11-29T00:42:29.581Z,101178.17
2022-11-29T00:43:29.608Z,101175.1
2022-11-29T00:44:30.004Z,101179.42
2022-11-29T00:45:30.059Z,101171.77
2022-11-29T00:46:30.105Z,101173.31
2022-11-29T00:47:30.076Z,101171.94
2022-11-29T00:48:30.229Z,101165.94
2022-11-29T00:49:30.084Z,101167.2
2022-11-29T00:50:30.121Z,101168.25
2022-11-29T00:51:30.145Z,101164.59
2022-11-29T00:52:30.155Z,101163.54
2022-11-29T00:53:30.188Z,101162.23
2022-11-29T00:54:30.163Z,101163.33
2022-11-29T00:55:30.199Z,101160.19
2022-11-29T00:56:30.206Z,101161.66
2022-11-29T00:57:30.231Z,101164.42
2022-11-29T00:58:30.265Z,101167.36
2022-11-29T00:59:30.224Z,101165.94
2022-11-29T01:00:30.219Z,101169.33
2022-11-29T01:01:30.327Z,101167.69
2022-11-29T01:02:30.321Z,101170.07
2022-11-29T01:03:30.470Z,101167.75
2022-11-29T01:04:30.307Z,101171.84
2022-11-29T01:05:31.074Z,101171.52
2022-11-29T01:06:30.366Z,101169.16
2022-11-29T01:07:30.403Z,101169.65
2022-11-29T01:08:30.428Z,101169.77
2022-11-29T01:09:30.380Z,101171.36
2022-11-29T01:10:30.516Z,101165.66
2022-11-29T01:11:30.401Z,101161.89
2022-11-29T01:12:30.424Z,101158.73
2022-11-29T01:13:30.534Z,101164.15
2022-11-29T01:14:30.446Z,101161.22
2022-11-29T01:15:30.669Z,101164.31
2022-11-29T01:16:30.949Z,101164.12
2022-11-29T01:17:30.551Z,101167.58
2022-11-29T01:18:30.882Z,101162.66
2022-11-29T01:19:30.583Z,101158.64
2022-11-29T01:20:30.534Z,101157.56
2022-11-29T01:21:30.537Z,101163.59
2022-11-29T01:22:30.532Z,101159.3
2022-11-29T01:23:30.563Z,101159.26
2022-11-29T01:24:30.639Z,101164.34
2022-11-29T01:25:30.542Z,101165.06
2022-11-29T01:26:31.085Z,101165.63
2022-11-29T01:27:31.230Z,101158.02
2022-11-29T01:28:31.091Z,101153.33
2022-11-29T01:29:31.049Z,101153.45
2022-11-29T01:30:31.135Z,101157.1
2022-11-29T01:31:32.503Z,101155.5
2022-11-29T01:32:31.099Z,101149.82
2022-11-29T01:33:31.084Z,101149.45
2022-11-29T01:34:31.204Z,101150.97
2022-11-29T01:35:31.114Z,101148.53
2022-11-29T01:36:33.241Z,101151.52
2022-11-29T01:37:31.212Z,101148.84
2022-11-29T01:38:31.177Z,101148.03
2022-11-29T01:39:31.284Z,101147.16
2022-11-29T01:40:31.182Z,101147.06
2022-11-29T01:41:32.740Z,101151.76
2022-11-29T01:42:31.239Z,101141.62
2022-11-29T01:43:31.657Z,101145.05
2022-11-29T01:45:36.802Z,101143.48
2022-11-29T01:46:34.658Z,101146.53
2022-11-29T01:47:33.258Z,101145.94
2022-11-29T01:48:33.313Z,101142.84
2022-11-29T01:49:35.486Z,101147.08
2022-11-29T01:50:33.124Z,101149.03
2022-11-29T01:51:34.068Z,101151.57
2022-11-29T01:52:33.191Z,101148.86
2022-11-29T01:53:33.477Z,101147.45
2022-11-29T01:55:37.276Z,101147.91
2022-11-29T01:56:35.357Z,101143.84
2022-11-29T01:57:36.515Z,101149.06
2022-11-29T01:58:35.050Z,101154.15
2022-11-29T01:59:36.992Z,101152.78
2022-11-29T02:00:35.343Z,101153.16
2022-11-29T02:01:35.685Z,101154.14
2022-11-29T02:03:38.033Z,101151.06
2022-11-29T02:04:39.159Z,101147.89
2022-11-29T02:05:39.406Z,101151.97
2022-11-29T02:06:38.693Z,101157.05
2022-11-29T02:07:38.044Z,101154.92
2022-11-29T02:08:39.838Z,101158.32
2022-11-29T02:09:38.370Z,101156.94
2022-11-29T02:16:01.109Z,101159.87
2022-11-29T02:17:01.266Z,101160.3
2022-11-29T02:18:02.854Z,101161.35
2022-11-29T02:22:02.853Z,101161.25
2022-11-29T02:30:31.985Z,101166.56
2022-11-29T02:45:06.256Z,101181.27
2022-11-29T02:48:21.047Z,101176.52
2022-11-29T02:53:37.031Z,101178.3
2022-11-29T02:55:37.239Z,101177.09
2022-11-29T02:57:40.960Z,101176.53
2022-11-29T03:00:50.202Z,101170.91
2022-11-29T03:02:52.703Z,101171.58
2022-11-29T03:07:11.310Z,101174.34
2022-11-29T03:09:19.083Z,101173.99
2022-11-29T03:14:33.173Z,101166.17
2022-11-29T03:17:45.094Z,101162.47
2022-11-29T03:18:47.778Z,101162.14
2022-11-29T03:20:57.926Z,101163.11
2022-11-29T03:26:04.640Z,101159.06
2022-11-29T03:27:03.989Z,101160.41
2022-11-29T03:29:11.734Z,101163.23
2022-11-29T03:30:09.344Z,101159.2
2022-11-29T03:31:12.001Z,101160.55
2022-11-29T03:35:24.338Z,101161.27
2022-11-29T03:36:25.832Z,101154.31
2022-11-29T03:37:20.163Z,101161.73
2022-11-29T03:40:24.387Z,101159.19
2022-11-29T03:41:27.550Z,101157.01
2022-11-29T03:42:31.936Z,101161.55
2022-11-29T03:43:42.627Z,101156.73
2022-11-29T03:44:35.966Z,101160.91
2022-11-29T03:45:36.094Z,101155.91
2022-11-29T03:47:41.720Z,101155.16
2022-11-29T03:48:36.699Z,101158.48
2022-11-29T03:49:39.621Z,101160.1
2022-11-29T03:50:39.157Z,101158.7
2022-11-29T03:56:46.982Z,101164.61
2022-11-29T04:30:09.377Z,101179.88
2022-11-29T04:34:26.641Z,101184.2
2022-11-29T04:36:32.036Z,101181.88
2022-11-29T04:58:25.402Z,101192.81
2022-11-29T05:00:24.596Z,101194.67
2022-11-29T05:03:41.300Z,101198.15
2022-11-29T05:04:40.648Z,101196.73
2022-11-29T05:08:50.554Z,101194.98
2022-11-29T05:09:57.962Z,101196.59
2022-11-29T05:26:37.984Z,101212.06
2022-11-29T05:27:46.895Z,101214.05
2022-11-29T05:29:43.244Z,101211.67
2022-11-29T05:30:49.716Z,101212.7
2022-11-29T05:31:55.462Z,101214.7
2022-11-29T05:37:59.766Z,101219.52
2022-11-29T05:46:19.698Z,101222.28
2022-11-29T05:47:21.706Z,101223.21
2022-11-29T05:54:44.264Z,101233.5
2022-11-29T05:57:55.154Z,101234.26
2022-11-29T05:59:49.566Z,101232.09
2022-11-29T06:00:53.972Z,101236.34
2022-11-29T06:05:03.345Z,101236.71
2022-11-29T06:06:03.018Z,101236.34
2022-11-29T06:08:06.126Z,101239.3
2022-11-29T06:32:03.277Z,101269.81
2022-11-29T06:35:12.031Z,101272.69
2022-11-29T06:36:19.837Z,101273.16
2022-11-29T06:37:18.082Z,101274.22
2022-11-29T06:38:22.903Z,101272.77
2022-11-29T06:39:19.753Z,101274.33
2022-11-29T06:40:19.802Z,101276.38
2022-11-29T06:41:21.370Z,101276.62
2022-11-29T06:42:19.683Z,101277.31
2022-11-29T06:43:20.177Z,101278.67
2022-11-29T06:44:20.093Z,101277.58
2022-11-29T06:45:20.102Z,101278.12
2022-11-29T06:47:28.686Z,101276.38
2022-11-29T06:48:27.038Z,101275.4
2022-11-29T06:49:30.931Z,101278.73
2022-11-29T06:51:42.876Z,101283.89
2022-11-29T06:52:46.256Z,101285.03
2022-11-29T06:53:46.340Z,101292.44
2022-11-29T06:55:50.744Z,101286.75
2022-11-29T07:06:20.806Z,101301.21
2022-11-29T07:07:20.882Z,101300.73
2022-11-29T07:08:14.236Z,101297.38
2022-11-29T07:09:13.724Z,101297.28
2022-11-29T07:10:17.274Z,101296.3
2022-11-29T07:11:14.616Z,101299.33
2022-11-29T07:12:14.790Z,101300.12
2022-11-29T07:13:14.280Z,101298.71
2022-11-29T07:14:14.662Z,101294.78
2022-11-29T07:15:15.909Z,101293.78
2022-11-29T07:17:27.728Z,101294
2022-11-29T07:18:30.052Z,101288.67
2022-11-29T07:41:20.806Z,101302.79
2022-11-29T07:44:29.822Z,101299.38
2022-11-29T07:45:29.332Z,101302.61
2022-11-29T07:46:26.153Z,101302.34
2022-11-29T07:47:26.925Z,101305.05
2022-11-29T07:48:26.192Z,101301.56
2022-11-29T07:49:26.170Z,101300.77
2022-11-29T07:50:26.925Z,101302.55
2022-11-29T07:51:26.418Z,101303.34
2022-11-29T07:52:26.389Z,101299.12
2022-11-29T07:53:26.272Z,101303.58
2022-11-29T07:54:26.435Z,101295.98
2022-11-29T07:55:26.685Z,101297.49
2022-11-29T07:56:26.282Z,101299.73
2022-11-29T07:57:26.303Z,101299.42
2022-11-29T07:58:26.377Z,101299.64
2022-11-29T07:59:26.321Z,101299.61
2022-11-29T08:00:26.409Z,101300.53
2022-11-29T08:01:26.449Z,101302.69
2022-11-29T08:02:30.095Z,101302.56
2022-11-29T08:03:26.367Z,101302.04
2022-11-29T08:04:26.395Z,101303.09
2022-11-29T08:05:26.404Z,101302.16
2022-11-29T08:06:26.509Z,101299.84
2022-11-29T08:07:26.501Z,101301.55
2022-11-29T08:08:26.518Z,101305.03
2022-11-29T08:09:26.603Z,101302.41
2022-11-29T08:10:26.689Z,101299.01
2022-11-29T08:11:26.846Z,101298.81
2022-11-29T08:12:26.578Z,101295.98
2022-11-29T08:13:26.570Z,101301.08
2022-11-29T08:14:26.561Z,101299.7
2022-11-29T08:15:26.565Z,101299.31
2022-11-29T08:16:27.104Z,101299.02
2022-11-29T08:17:26.613Z,101299.84
2022-11-29T08:18:26.643Z,101296.53
2022-11-29T08:19:26.631Z,101301.8
2022-11-29T08:20:26.866Z,101301.27
2022-11-29T08:21:26.724Z,101299.23
2022-11-29T08:22:26.859Z,101298.92
2022-11-29T08:23:26.705Z,101299.08
2022-11-29T08:24:26.744Z,101300.48
2022-11-29T08:25:27.635Z,101298.8
2022-11-29T08:26:31.230Z,101296.62
2022-11-29T08:27:28.093Z,101298.22
2022-11-29T08:28:28.272Z,101298.58
2022-11-29T08:29:27.981Z,101301.16
2022-11-29T08:30:27.992Z,101298.97
2022-11-29T08:31:28.105Z,101304.25
2022-11-29T08:32:28.260Z,101297.32
2022-11-29T08:33:28.377Z,101294.7
2022-11-29T08:34:28.064Z,101294.17
2022-11-29T08:35:28.070Z,101290.2
2022-11-29T08:36:28.090Z,101290.03
2022-11-29T08:37:28.115Z,101290.3
2022-11-29T08:38:28.144Z,101288.16
2022-11-29T08:39:28.188Z,101290.81
2022-11-29T08:40:28.175Z,101290.05
2022-11-29T08:41:28.942Z,101291
2022-11-29T08:42:28.193Z,101290.2
2022-11-29T08:43:30.228Z,101286.57
2022-11-29T08:44:28.240Z,101291.24
2022-11-29T08:45:28.309Z,101286.53
2022-11-29T08:46:28.553Z,101286.11
2022-11-29T08:47:28.278Z,101286.02
2022-11-29T08:48:28.281Z,101285.84
2022-11-29T08:49:28.331Z,101292.23
2022-11-29T08:50:28.345Z,101291.17
2022-11-29T08:51:28.813Z,101286.3
2022-11-29T08:52:33.002Z,101286.39
2022-11-29T08:53:29.249Z,101286.38
2022-11-29T08:54:29.330Z,101288.79
2022-11-29T08:55:33.459Z,101286.06
2022-11-29T08:57:16.519Z,101285.95
2022-11-29T08:57:39.766Z,101288.48
2022-11-29T08:58:31.814Z,101285.81
2022-11-29T08:59:31.812Z,101284.58
2022-11-29T09:00:32.991Z,101282.8
2022-11-29T09:01:31.885Z,101287.55
2022-11-29T09:02:31.866Z,101285.05
2022-11-29T09:03:32.686Z,101284.85
2022-11-29T09:04:31.855Z,101282.8
2022-11-29T09:05:31.831Z,101284.77
2022-11-29T09:06:33.188Z,101282.25
2022-11-29T09:07:32.030Z,101281.27
2022-11-29T09:08:31.897Z,101285.81
2022-11-29T09:09:31.969Z,101291.06
2022-11-29T09:10:31.932Z,101287.03
2022-11-29T09:11:33.388Z,101289.7
2022-11-29T09:12:32.549Z,101290.47
2022-11-29T09:13:31.969Z,101287.37
2022-11-29T09:14:31.997Z,101289.39
2022-11-29T09:15:32.018Z,101292.99
2022-11-29T09:16:36.071Z,101285.69
2022-11-29T09:17:32.401Z,101286.8
2022-11-29T09:18:32.360Z,101284.72
2022-11-29T09:19:32.419Z,101286.95
2022-11-29T09:20:33.102Z,101283.86
2022-11-29T09:21:33.000Z,101287.39
2022-11-29T09:22:32.475Z,101289.89
2022-11-29T09:23:32.531Z,101287.86
2022-11-29T09:24:33.419Z,101286.98
2022-11-29T09:25:32.533Z,101286.02
2022-11-29T09:26:34.105Z,101283.47
2022-11-29T09:27:32.549Z,101285.42
2022-11-29T09:28:32.913Z,101285.19
2022-11-29T09:29:32.885Z,101284.09
2022-11-29T09:30:32.864Z,101287.89
2022-11-29T09:31:33.138Z,101285.7
2022-11-29T09:32:33.900Z,101284.8
2022-11-29T09:33:32.792Z,101282.15
2022-11-29T09:34:32.695Z,101282.92
2022-11-29T09:35:33.642Z,101287.02
2022-11-29T09:36:32.840Z,101288.33
2022-11-29T09:37:32.683Z,101285.72
2022-11-29T09:38:33.237Z,101286.73
2022-11-29T09:39:32.732Z,101284.12
2022-11-29T09:42:46.626Z,101290
2022-11-29T09:45:49.836Z,101287.42
2022-11-29T09:46:58.793Z,101284.77
2022-11-29T09:56:22.229Z,101290.09
2022-11-29T09:57:13.937Z,101292.73
2022-11-29T09:58:17.368Z,101287.28
2022-11-29T09:59:19.954Z,101287.2
2022-11-29T10:00:18.226Z,101290.74
2022-11-29T10:01:19.030Z,101285.92
2022-11-29T10:02:21.681Z,101285.52
2022-11-29T10:05:25.026Z,101282.73
2022-11-29T10:08:30.925Z,101282.22
2022-11-29T10:09:34.327Z,101280.62
2022-11-29T10:10:37.660Z,101282.31
2022-11-29T10:11:41.805Z,101277.88
2022-11-29T10:12:46.301Z,101278.9
2022-11-29T10:13:45.345Z,101277.86
2022-11-29T10:15:47.293Z,101278.54
2022-11-29T10:17:53.137Z,101276.12
2022-11-29T10:18:58.394Z,101281.25
2022-11-29T10:19:56.896Z,101282.7
2022-11-29T10:20:55.274Z,101276.59
2022-11-29T10:22:01.568Z,101276.92
2022-11-29T10:24:09.306Z,101272.73
2022-11-29T10:25:06.606Z,101269.64
2022-11-29T10:26:06.058Z,101274.39
2022-11-29T10:28:10.988Z,101272.98
2022-11-29T10:29:15.968Z,101272.09
2022-11-29T10:30:13.547Z,101275.45
2022-11-29T10:32:15.890Z,101278.17
2022-11-29T10:33:19.182Z,101281.01
2022-11-29T10:34:20.392Z,101280.62
2022-11-29T10:35:18.522Z,101282.48
2022-11-29T10:37:20.215Z,101287.25
2022-11-29T10:38:34.499Z,101288.39
2022-11-29T10:40:31.223Z,101286.94
2022-11-29T10:41:27.956Z,101287.66
2022-11-29T10:42:28.673Z,101284.02
2022-11-29T10:43:28.008Z,101284.06
2022-11-29T10:44:28.539Z,101285.67
2022-11-29T10:45:40.165Z,101284.47
2022-11-29T10:46:35.810Z,101290.77
2022-11-29T10:47:33.060Z,101287.09
2022-11-29T10:48:33.750Z,101286.08
2022-11-29T10:49:34.424Z,101289.5
2022-11-29T10:50:34.436Z,101294.38
2022-11-29T10:51:33.161Z,101292.23
2022-11-29T10:52:32.963Z,101295.47
2022-11-29T10:53:36.602Z,101297.38
2022-11-29T10:54:44.125Z,101299.7
2022-11-29T10:55:41.568Z,101296.14
2022-11-29T10:56:38.629Z,101295.7
2022-11-29T11:00:50.733Z,101294.52
2022-11-29T11:01:47.332Z,101294.76
2022-11-29T11:02:47.184Z,101294
2022-11-29T11:03:53.108Z,101294.93
2022-11-29T11:04:49.816Z,101293.84
2022-11-29T11:06:57.910Z,101295.38
2022-11-29T11:07:58.523Z,101294.7
2022-11-29T11:08:56.723Z,101295.12
2022-11-29T11:09:56.659Z,101297.71
2022-11-29T11:11:01.159Z,101299.7
2022-11-29T11:12:00.083Z,101300.07
2022-11-29T11:13:02.484Z,101302.25
2022-11-29T11:14:04.132Z,101302.59
2022-11-29T11:18:06.058Z,101304.92
2022-11-29T11:21:11.936Z,101302.7
2022-11-29T11:22:19.703Z,101307.86
2022-11-29T11:24:23.395Z,101300.72
2022-11-29T11:26:15.402Z,101296.84
2022-11-29T11:27:27.720Z,101302.5
2022-11-29T11:28:21.044Z,101304.86
2022-11-29T11:29:22.183Z,101302.75
2022-11-29T11:30:23.927Z,101306.43
2022-11-29T11:31:27.915Z,101300.69
2022-11-29T11:32:24.813Z,101300.53
2022-11-29T11:33:26.410Z,101299.23
2022-11-29T11:34:32.105Z,101299.19
2022-11-29T11:35:28.848Z,101297.19
2022-11-29T11:36:28.827Z,101299.61
2022-11-29T11:37:30.155Z,101298.12
2022-11-29T11:38:29.136Z,101297.5
2022-11-29T11:39:29.416Z,101294.86
2022-11-29T11:40:30.204Z,101297.5
2022-11-29T11:41:31.667Z,101297.81
2022-11-29T11:42:31.416Z,101294.86
2022-11-29T11:43:29.281Z,101294.48
2022-11-29T11:44:50.448Z,101294.3
2022-11-29T11:45:33.474Z,101294.92
2022-11-29T11:47:44.870Z,101290.75
2022-11-29T11:48:41.626Z,101289.88
2022-11-29T11:50:53.003Z,101290.02
2022-11-29T11:51:50.319Z,101292.8
2022-11-29T11:52:51.650Z,101295.91
2022-11-29T11:53:50.968Z,101294.65
2022-11-29T11:54:58.470Z,101291.62
2022-11-29T11:55:54.810Z,101294.84
2022-11-29T11:56:51.755Z,101294.14
2022-11-29T11:58:56.742Z,101297.03
2022-11-29T11:59:56.241Z,101296.98
2022-11-29T12:01:58.805Z,101301.75
2022-11-29T12:02:59.754Z,101297.9
2022-11-29T12:05:06.500Z,101294.75
2022-11-29T12:08:11.627Z,101293.33
2022-11-29T12:09:14.431Z,101298.2
2022-11-29T12:10:16.107Z,101293.41
2022-11-29T12:11:14.502Z,101297.36
2022-11-29T12:12:19.348Z,101295.81
2022-11-29T12:13:19.657Z,101291.11
2022-11-29T12:14:21.482Z,101291.27
2022-11-29T12:15:23.754Z,101290.5
2022-11-29T12:16:22.517Z,101289.69
2022-11-29T12:19:28.834Z,101293.07
2022-11-29T12:21:33.640Z,101294.84
2022-11-29T12:22:33.733Z,101299.14
2022-11-29T12:24:37.854Z,101298.5
2022-11-29T12:26:58.040Z,101299.03
2022-11-29T12:27:39.926Z,101300.39
2022-11-29T12:28:40.657Z,101300.55
2022-11-29T12:29:40.024Z,101296.87
2022-11-29T12:32:49.896Z,101300.75
2022-11-29T12:35:58.848Z,101307.11
2022-11-29T12:42:16.361Z,101308.14
2022-11-29T12:44:29.097Z,101308.34
2022-11-29T12:46:26.060Z,101307.52
2022-11-29T12:49:33.503Z,101303.36
2022-11-29T12:54:56.963Z,101303.02
2022-11-29T13:00:09.051Z,101306.01
2022-11-29T13:03:27.677Z,101309.64
2022-11-29T13:05:19.890Z,101308.66
2022-11-29T13:09:32.857Z,101312.34
2022-11-29T13:11:29.460Z,101310.83
2022-11-29T13:18:45.284Z,101309.87
2022-11-29T13:25:53.998Z,101304.34
2022-11-29T13:26:53.945Z,101308.25
2022-11-29T13:28:57.306Z,101301.44
2022-11-29T13:29:57.974Z,101303.85
2022-11-29T13:31:04.761Z,101301.8
2022-11-29T13:31:57.454Z,101300.3
2022-11-29T13:33:04.742Z,101304.06
2022-11-29T13:34:07.570Z,101302.7
2022-11-29T13:36:21.180Z,101305.53
2022-11-29T13:37:18.275Z,101304.77
2022-11-29T13:49:50.193Z,101301.08
2022-11-29T13:50:46.514Z,101304.2
2022-11-29T13:51:46.519Z,101306.23
2022-11-29T13:52:47.137Z,101303.67
2022-11-29T13:53:49.094Z,101308.91
2022-11-29T13:54:46.849Z,101301.03
2022-11-29T13:55:48.514Z,101302.8
2022-11-29T13:56:46.803Z,101303.2
2022-11-29T13:58:52.386Z,101302.78
2022-11-29T13:59:49.704Z,101302.29
2022-11-29T14:00:50.804Z,101298.92
2022-11-29T14:01:51.351Z,101302.25
2022-11-29T14:02:49.653Z,101302.77
2022-11-29T14:04:53.002Z,101304.2
2022-11-29T14:06:03.233Z,101301.55
2022-11-29T14:07:05.835Z,101304.11
2022-11-29T14:10:06.792Z,101306.42
2022-11-29T14:19:27.773Z,101307.91
2022-11-29T14:23:39.474Z,101303.54
2022-11-29T14:24:41.305Z,101302.35
2022-11-29T14:25:51.720Z,101300.81
2022-11-29T14:26:38.936Z,101304.96
2022-11-29T14:28:40.305Z,101303.17
2022-11-29T14:30:48.582Z,101301.56
2022-11-29T14:31:51.210Z,101304.73
2022-11-29T14:35:02.765Z,101299.98
2022-11-29T14:41:16.738Z,101298.15
2022-11-29T14:45:22.015Z,101300.09
2022-11-29T14:46:29.024Z,101300.28
2022-11-29T14:48:26.603Z,101303.12
2022-11-29T14:49:26.548Z,101298.72
2022-11-29T14:50:34.043Z,101304.33
2022-11-29T14:51:31.955Z,101302.08
2022-11-29T14:52:32.098Z,101302.03
2022-11-29T14:53:34.084Z,101301.05
2022-11-29T14:54:30.878Z,101298.97
2022-11-29T14:55:33.489Z,101302.6
2022-11-29T14:56:39.806Z,101299.2
2022-11-29T14:58:36.088Z,101301.27
2022-11-29T15:01:44.043Z,101303.33
2022-11-29T15:02:50.549Z,101299.74
2022-11-29T15:03:48.944Z,101294.23
2022-11-29T15:04:49.554Z,101299.67
2022-11-29T15:06:53.273Z,101294.91
2022-11-29T15:09:54.955Z,101293.92
2022-11-29T15:10:56.779Z,101297.9
2022-11-29T15:11:57.649Z,101300.76
2022-11-29T15:12:53.922Z,101296.11
2022-11-29T15:22:17.759Z,101292.25
2022-11-29T15:23:15.500Z,101295.7
2022-11-29T15:24:16.142Z,101296.81
2022-11-29T15:25:17.262Z,101292.16
2022-11-29T15:26:18.821Z,101295.77
2022-11-29T15:27:15.532Z,101293.62
2022-11-29T15:28:22.630Z,101296.48
2022-11-29T15:29:19.840Z,101293.14
2022-11-29T15:31:22.286Z,101294.2
2022-11-29T15:32:23.952Z,101293.97
2022-11-29T15:33:23.896Z,101295.45
2022-11-29T15:34:31.969Z,101298.05
2022-11-29T15:35:23.708Z,101302.17
2022-11-29T15:36:23.679Z,101298.64
2022-11-29T15:38:24.234Z,101303.05
2022-11-29T15:39:25.452Z,101302.89
2022-11-29T15:40:25.260Z,101300.27
2022-11-29T15:41:28.019Z,101298.3
2022-11-29T15:42:28.467Z,101296.51
2022-11-29T15:43:31.680Z,101300.17
2022-11-29T15:44:29.668Z,101301.4
2022-11-29T15:45:34.799Z,101298.83
2022-11-29T15:46:33.060Z,101302.16
2022-11-29T15:47:31.599Z,101303
2022-11-29T15:48:32.157Z,101301.98
2022-11-29T15:49:31.583Z,101302.3
2022-11-29T15:50:33.181Z,101298.28
2022-11-29T15:51:34.617Z,101300.48
2022-11-29T15:52:35.123Z,101302.14
2022-11-29T15:54:39.201Z,101296.56
2022-11-29T15:55:35.675Z,101292.36
2022-11-29T15:56:39.153Z,101298.3
2022-11-29T15:57:38.384Z,101300.98
2022-11-29T15:58:36.322Z,101298.52
2022-11-29T16:00:36.645Z,101300.42
2022-11-29T16:01:37.577Z,101297.86
2022-11-29T16:02:39.792Z,101296.62
2022-11-29T16:03:39.016Z,101299.56
2022-11-29T16:04:42.223Z,101293.64
2022-11-29T16:05:41.453Z,101299.96
2022-11-29T16:06:42.020Z,101298.8
2022-11-29T16:07:42.655Z,101303.38
2022-11-29T16:08:42.018Z,101303.7
2022-11-29T16:09:44.007Z,101299.45
2022-11-29T16:10:43.584Z,101300.11
2022-11-29T16:11:41.721Z,101301.31
2022-11-29T16:14:56.617Z,101300.05
2022-11-29T16:16:57.298Z,101305.8
2022-11-29T16:17:55.459Z,101305.82
2022-11-29T16:21:04.095Z,101305
2022-11-29T16:25:17.890Z,101307.12
2022-11-29T16:26:13.514Z,101306.96
2022-11-29T16:27:11.113Z,101303.28
2022-11-29T16:28:12.335Z,101308.33
2022-11-29T16:31:17.963Z,101302.94
2022-11-29T16:33:18.755Z,101304.73
2022-11-29T16:34:21.230Z,101307.3
2022-11-29T16:35:22.339Z,101298.07
2022-11-29T16:36:21.830Z,101303.33
2022-11-29T16:37:23.384Z,101304.09
2022-11-29T16:38:21.245Z,101305.73
2022-11-29T16:39:22.580Z,101304.67
2022-11-29T16:40:22.012Z,101303.45
2022-11-29T16:41:21.960Z,101308.99
2022-11-29T16:42:25.845Z,101307.41
2022-11-29T16:46:30.708Z,101305.69
2022-11-29T16:47:30.332Z,101304.17
2022-11-29T16:48:30.190Z,101304.02
2022-11-29T16:49:30.863Z,101303.52
2022-11-29T16:50:30.503Z,101305.39
2022-11-29T16:52:34.159Z,101310.51
2022-11-29T16:53:34.853Z,101311.33
2022-11-29T16:54:33.823Z,101310.75
2022-11-29T16:55:33.786Z,101311.5
2022-11-29T16:56:33.887Z,101309.61
2022-11-29T16:57:33.951Z,101310.41
2022-11-29T16:58:36.453Z,101311.28
2022-11-29T16:59:38.543Z,101307.35
2022-11-29T17:00:37.030Z,101311.98
2022-11-29T17:01:37.378Z,101309.89
2022-11-29T17:02:37.085Z,101309.47
2022-11-29T17:03:37.053Z,101313.94
2022-11-29T17:04:37.003Z,101312.47
2022-11-29T17:05:43.126Z,101313.36
2022-11-29T17:06:41.531Z,101314.42
2022-11-29T17:07:41.836Z,101314.66
2022-11-29T17:08:42.060Z,101314.31
2022-11-29T17:09:41.827Z,101318.28
2022-11-29T17:10:41.607Z,101313.7
2022-11-29T17:11:41.540Z,101317.22
2022-11-29T17:12:46.450Z,101317.52
2022-11-29T17:13:45.541Z,101321.91
2022-11-29T17:14:45.228Z,101318.73
2022-11-29T17:15:44.792Z,101322.33
2022-11-29T17:16:44.705Z,101321.3
2022-11-29T17:17:44.946Z,101319.94
2022-11-29T17:18:44.933Z,101322.44
2022-11-29T17:19:44.919Z,101328.11
2022-11-29T17:20:44.865Z,101328.81
2022-11-29T17:21:45.080Z,101327.7
2022-11-29T17:22:44.783Z,101326.53
2022-11-29T17:23:45.196Z,101330.42
2022-11-29T17:24:47.913Z,101323.75
2022-11-29T17:25:45.512Z,101323.03
2022-11-29T17:26:45.810Z,101324.27
2022-11-29T17:27:45.416Z,101327.71
2022-11-29T17:28:46.352Z,101324.81
2022-11-29T17:29:45.454Z,101328.39
2022-11-29T17:30:48.454Z,101325.13
2022-11-29T17:31:46.312Z,101327.51
2022-11-29T17:32:45.490Z,101327.62
2022-11-29T17:33:46.838Z,101329.06
2022-11-29T17:34:45.774Z,101331.6
2022-11-29T17:35:45.553Z,101329.38
2022-11-29T17:36:48.179Z,101328.68
2022-11-29T17:37:47.738Z,101332.95
2022-11-29T17:38:46.413Z,101329.81
2022-11-29T17:39:45.979Z,101329.67
2022-11-29T17:40:46.204Z,101327.54
2022-11-29T17:41:46.274Z,101325.78
2022-11-29T17:42:45.651Z,101325.66
2022-11-29T17:43:45.624Z,101325.41
2022-11-29T17:44:45.687Z,101324.8
2022-11-29T17:45:45.704Z,101325.91
2022-11-29T17:46:46.120Z,101326.78
2022-11-29T17:47:46.204Z,101323.64
2022-11-29T17:48:46.201Z,101325.14
2022-11-29T17:49:46.490Z,101327.36
2022-11-29T17:50:46.200Z,101326.22
2022-11-29T17:51:53.894Z,101328.61
2022-11-29T17:52:51.027Z,101327.97
2022-11-29T17:53:51.631Z,101325.34
2022-11-29T17:54:51.002Z,101328.3
2022-11-29T17:55:51.092Z,101330.62
2022-11-29T17:56:51.167Z,101327.54
2022-11-29T17:57:51.124Z,101326.02
2022-11-29T17:58:52.094Z,101325.41
2022-11-29T17:59:51.097Z,101328.73
2022-11-29T18:00:51.112Z,101325.72
2022-11-29T18:01:51.172Z,101324.47
2022-11-29T18:02:51.194Z,101319.12
2022-11-29T18:03:52.227Z,101319.45
2022-11-29T18:04:51.163Z,101322.28
2022-11-29T18:05:51.195Z,101318.51
2022-11-29T18:06:51.133Z,101318.22
2022-11-29T18:07:51.216Z,101318.59
2022-11-29T18:08:52.349Z,101313.53
2022-11-29T18:09:51.235Z,101317.09
2022-11-29T18:10:51.255Z,101314.44
2022-11-29T18:11:51.273Z,101314.69
2022-11-29T18:12:51.390Z,101314.49
2022-11-29T18:13:52.511Z,101313.59
2022-11-29T18:14:51.398Z,101309.9
2022-11-29T18:15:51.308Z,101311.43
2022-11-29T18:16:51.609Z,101312.95
2022-11-29T18:17:51.405Z,101316.77
2022-11-29T18:18:59.221Z,101315.82
2022-11-29T18:19:55.945Z,101315.98
2022-11-29T18:21:00.017Z,101310.47
2022-11-29T18:21:56.761Z,101312.19
2022-11-29T18:22:58.075Z,101314.33